Time;durP1;ratioP1;P1;durP2;ratioP2;P2;SDS_P1;SDS_P2;PMS_P1;PMS_P2;Temp;Humidity;BMP_temperature;BMP_pressure;BME280_temperature;BME280_humidity;BME280_pressure;Samples;Min_cycle;Max_cycle;Signal;HPM_P1;HPM_P2
2022/01/08 00:00:42;;;;;;;29.00;10.80;;;;;;;-3.87;53.32;99098.42;106071;1273;108404;-67
2022/01/08 00:03:11;;;;;;;28.10;9.70;;;;;;;-3.88;53.58;99092.75;106128;1274;97999;-67
2022/01/08 00:05:42;;;;;;;27.90;8.60;;;;;;;-3.90;53.46;99094.31;106081;1274;97972;-66
2022/01/08 00:08:10;;;;;;;31.50;10.00;;;;;;;-3.90;53.46;99087.73;106075;1274;112070;-66
2022/01/08 00:10:39;;;;;;;24.80;8.90;;;;;;;-3.91;53.72;99081.86;106133;1274;97905;-67
2022/01/08 00:13:09;;;;;;;26.10;9.30;;;;;;;-3.93;53.50;99076.00;106164;1273;108846;-67
2022/01/08 00:15:38;;;;;;;29.20;9.30;;;;;;;-3.96;53.74;99070.48;106083;1274;95294;-67
2022/01/08 00:18:07;;;;;;;23.80;9.00;;;;;;;-4.01;53.72;99068.98;106136;1274;98550;-68
2022/01/08 00:20:35;;;;;;;26.90;9.70;;;;;;;-4.04;53.94;99063.67;106171;1273;112081;-67
2022/01/08 00:23:04;;;;;;;21.90;8.20;;;;;;;-4.07;53.93;99058.85;106173;1274;97865;-68
2022/01/08 00:25:38;;;;;;;22.40;8.00;;;;;;;-4.09;54.06;99060.45;106094;1271;107775;-68
2022/01/08 00:28:06;;;;;;;27.40;10.40;;;;;;;-4.11;54.02;99055.61;106072;1274;97956;-67
2022/01/08 00:30:37;;;;;;;24.50;8.50;;;;;;;-4.11;54.14;99054.23;106098;1274;97838;-68
2022/01/08 00:33:05;;;;;;;23.60;8.40;;;;;;;-4.10;54.25;99054.58;106094;1273;111391;-68
2022/01/08 00:35:36;;;;;;;26.20;10.20;;;;;;;-4.11;54.42;99047.31;106153;1274;97816;-67
2022/01/08 00:38:08;;;;;;;25.40;8.90;;;;;;;-4.12;54.47;99048.52;106150;1274;108774;-69
2022/01/08 00:40:40;;;;;;;23.00;8.80;;;;;;;-4.14;54.74;99047.17;106131;1274;95258;-67
2022/01/08 00:43:07;;;;;;;27.90;9.10;;;;;;;-4.16;54.86;99044.77;106196;1274;97865;-68
2022/01/08 00:45:37;;;;;;;24.50;9.50;;;;;;;-4.26;55.15;99042.14;106147;1274;112040;-66
2022/01/08 00:48:05;;;;;;;24.90;9.50;;;;;;;-4.34;55.29;99047.26;106190;1274;97876;-68
2022/01/08 00:50:41;;;;;;;24.50;8.90;;;;;;;-4.40;55.16;99048.52;106093;1273;107089;-68
2022/01/08 00:53:09;;;;;;;25.00;8.90;;;;;;;-4.43;55.08;99043.73;106079;1274;97978;-68
2022/01/08 00:55:36;;;;;;;24.10;9.40;;;;;;;-4.42;55.16;99048.73;106219;1273;97828;-66
2022/01/08 00:58:04;;;;;;;20.50;6.80;;;;;;;-4.42;55.21;99042.50;106068;1274;110858;-66
2022/01/08 01:00:36;;;;;;;23.70;7.50;;;;;;;-4.38;55.29;99039.17;106051;1274;96980;-67
2022/01/08 01:03:08;;;;;;;18.60;7.20;;;;;;;-4.33;55.29;99038.06;106035;1274;108389;-67
2022/01/08 01:05:36;;;;;;;20.50;7.20;;;;;;;-4.27;55.55;99039.20;106084;1274;96535;-67
2022/01/08 01:08:09;;;;;;;18.70;6.20;;;;;;;-4.26;55.37;99038.83;106118;1274;97860;-67
2022/01/08 01:10:39;;;;;;;20.40;6.60;;;;;;;-4.25;55.37;99038.64;106103;1274;111888;-68
2022/01/08 01:13:07;;;;;;;18.30;6.50;;;;;;;-4.25;55.35;99037.44;106175;1274;97833;-70
2022/01/08 01:15:36;;;;;;;21.40;7.00;;;;;;;-4.23;55.35;99038.80;106091;1274;108507;-68
2022/01/08 01:18:05;;;;;;;26.00;8.50;;;;;;;-4.21;55.45;99039.11;106006;1274;99416;-68
2022/01/08 01:20:38;;;;;;;26.20;9.40;;;;;;;-4.17;55.40;99044.27;106193;1274;97929;-68
2022/01/08 01:23:13;;;;;;;32.40;12.20;;;;;;;-4.14;55.37;99038.34;106205;1274;111945;-68
2022/01/08 01:25:49;;;;;;;33.50;14.10;;;;;;;-4.14;55.49;99034.01;106099;1273;97878;-66
2022/01/08 01:28:40;;;;;;;32.80;12.60;;;;;;;-4.12;55.19;99037.80;106126;1274;108129;-65
2022/01/08 01:42:42;;;;;;;36.40;12.40;;;;;;;-4.07;55.48;99028.37;106087;1274;108293;-68
2022/01/08 01:47:58;;;;;;;23.20;8.40;;;;;;;-4.08;55.59;99015.23;106183;1274;97863;-68
2022/01/08 01:50:26;;;;;;;23.10;8.90;;;;;;;-4.07;55.49;99010.70;106167;1274;111547;-68
2022/01/08 01:52:56;;;;;;;22.30;8.00;;;;;;;-4.05;55.49;99004.95;106098;1274;97970;-68
2022/01/08 01:55:28;;;;;;;21.90;7.40;;;;;;;-4.04;55.57;99003.38;106146;1274;108737;-68
2022/01/08 01:58:00;;;;;;;18.10;6.30;;;;;;;-4.01;55.61;99003.51;106096;1273;98045;-65
2022/01/08 02:00:28;;;;;;;20.20;6.60;;;;;;;-3.97;55.71;98999.98;106193;1274;97857;-67
2022/01/08 02:03:00;;;;;;;18.10;6.30;;;;;;;-3.95;55.81;98999.63;106066;1273;112026;-69
2022/01/08 02:05:29;;;;;;;18.60;6.50;;;;;;;-3.94;55.83;98994.23;106673;1274;97856;-69
2022/01/08 02:07:57;;;;;;;20.50;6.80;;;;;;;-3.93;55.96;98990.25;106197;1274;110791;-67
2022/01/08 02:10:27;;;;;;;20.50;8.00;;;;;;;-3.93;56.07;98991.63;106116;1274;97965;-67
2022/01/08 02:13:00;;;;;;;20.40;7.70;;;;;;;-3.92;55.85;98990.91;106120;1274;97864;-68
2022/01/08 02:15:30;;;;;;;20.00;7.30;;;;;;;-3.90;55.88;98992.95;106168;1274;112017;-66
2022/01/08 02:17:57;;;;;;;23.00;7.90;;;;;;;-3.90;56.03;98989.16;106230;1274;97988;-65
2022/01/08 02:20:31;;;;;;;20.20;6.80;;;;;;;-3.90;56.09;98989.67;106217;1274;108346;-69
2022/01/08 02:23:01;;;;;;;18.60;6.60;;;;;;;-3.92;55.98;98982.94;106218;1274;97974;-67
2022/01/08 02:25:29;;;;;;;22.80;7.40;;;;;;;-3.93;55.87;98980.54;106144;1274;97947;-66
2022/01/08 02:27:57;;;;;;;20.90;7.10;;;;;;;-3.94;56.04;98973.96;106134;1274;112339;-66
2022/01/08 02:30:25;;;;;;;22.90;7.90;;;;;;;-3.94;56.06;98973.63;106145;1274;98023;-68
2022/01/08 02:32:53;;;;;;;19.70;7.30;;;;;;;-3.94;56.20;98976.91;106127;1272;108937;-65
2022/01/08 02:35:30;;;;;;;21.90;7.60;;;;;;;-3.94;55.97;98976.91;106082;1274;97927;-68
2022/01/08 02:37:58;;;;;;;21.80;7.40;;;;;;;-3.94;56.11;98977.78;106211;1274;95181;-68
2022/01/08 02:40:31;;;;;;;20.80;7.30;;;;;;;-3.98;56.29;98975.23;106198;1274;112282;-68
2022/01/08 02:43:04;;;;;;;22.20;7.80;;;;;;;-4.03;56.26;98968.02;106222;1274;97947;-67
2022/01/08 02:45:32;;;;;;;23.80;8.10;;;;;;;-4.07;56.33;98968.08;106170;1272;108636;-68
2022/01/08 02:48:00;;;;;;;23.00;8.80;;;;;;;-4.08;56.26;98968.64;106149;1274;97881;-66
2022/01/08 02:50:28;;;;;;;22.50;8.30;;;;;;;-4.09;56.17;98962.24;106089;1274;97845;-66
2022/01/08 02:52:56;;;;;;;22.00;8.50;;;;;;;-4.07;56.38;98967.75;106035;1274;112061;-67
2022/01/08 02:55:24;;;;;;;20.90;7.90;;;;;;;-4.06;56.27;98966.17;106005;1274;98881;-69
2022/01/08 02:57:52;;;;;;;18.90;7.60;;;;;;;-4.06;56.35;98971.02;106060;1274;108340;-69
2022/01/08 03:00:22;;;;;;;22.20;7.70;;;;;;;-4.04;56.31;98971.50;106082;1274;97919;-67
2022/01/08 03:02:54;;;;;;;18.30;6.90;;;;;;;-4.01;56.43;98969.56;106133;1274;97872;-64
2022/01/08 03:05:27;;;;;;;22.30;7.70;;;;;;;-4.03;56.24;98967.68;106098;1274;110657;-68
2022/01/08 03:07:55;;;;;;;21.90;8.40;;;;;;;-4.01;56.33;98964.20;106160;1273;97945;-70
2022/01/08 03:10:23;;;;;;;22.20;7.90;;;;;;;-4.00;56.28;98961.59;106153;1274;107883;-69
2022/01/08 03:12:55;;;;;;;20.20;8.10;;;;;;;-4.00;56.41;98962.45;106120;1273;97854;-69
2022/01/08 03:15:23;;;;;;;19.60;7.60;;;;;;;-4.01;56.42;98957.44;106141;1274;95390;-69
2022/01/08 03:17:56;;;;;;;23.80;7.10;;;;;;;-4.00;56.29;98956.73;106056;1274;112000;-67
2022/01/08 03:20:24;;;;;;;25.50;9.10;;;;;;;-4.00;56.40;98953.61;106151;1274;97968;-67
2022/01/08 03:22:51;;;;;;;22.80;8.30;;;;;;;-4.07;56.46;98948.00;106042;1274;108219;-66
2022/01/08 03:25:19;;;;;;;19.80;8.00;;;;;;;-4.10;56.28;98949.96;106086;1272;97976;-67
2022/01/08 03:27:48;;;;;;;23.50;8.70;;;;;;;-4.11;56.41;98949.63;106141;1274;98044;-70
2022/01/08 03:30:28;;;;;;;22.50;7.80;;;;;;;-4.10;56.65;98944.58;105227;1273;1148617;-66
2022/01/08 03:32:55;;;;;;;20.90;7.30;;;;;;;-4.09;56.56;98941.45;106086;1273;97877;-67
2022/01/08 03:35:33;;;;;;;21.60;7.90;;;;;;;-4.07;56.66;98942.79;106126;1274;106169;-69
2022/01/08 03:38:05;;;;;;;21.80;7.90;;;;;;;-4.05;56.60;98942.08;106110;1274;96307;-68
2022/01/08 03:40:33;;;;;;;20.50;8.30;;;;;;;-4.05;56.70;98943.10;106156;1274;97852;-68
2022/01/08 03:43:06;;;;;;;18.90;7.60;;;;;;;-4.03;56.69;98938.59;106210;1274;111951;-68
2022/01/08 03:45:33;;;;;;;21.90;8.10;;;;;;;-4.03;56.53;98938.77;106196;1274;97898;-67
2022/01/08 03:50:48;;;;;;;23.50;9.30;;;;;;;-4.04;56.69;98931.67;106183;1273;97956;-65
2022/01/08 03:53:15;;;;;;;23.00;9.50;;;;;;;-4.03;56.75;98927.50;106126;1274;96582;-67
2022/01/08 03:55:48;;;;;;;23.30;9.20;;;;;;;-4.00;56.69;98929.02;106252;1274;112101;-66
2022/01/08 03:58:18;;;;;;;19.70;7.30;;;;;;;-3.98;56.79;98927.42;106226;1274;95269;-66
2022/01/08 04:00:51;;;;;;;23.50;8.40;;;;;;;-4.00;56.69;98926.24;106126;1274;108853;-68
2022/01/08 04:03:25;;;;;;;21.10;7.20;;;;;;;-4.01;56.70;98926.26;106180;1274;97948;-68
2022/01/08 04:05:53;;;;;;;20.70;7.40;;;;;;;-4.01;56.83;98925.73;106238;1274;97949;-67
2022/01/08 04:08:20;;;;;;;20.90;7.50;;;;;;;-4.05;56.66;98920.59;106203;1274;111715;-65
2022/01/08 04:10:48;;;;;;;18.70;7.00;;;;;;;-4.07;56.84;98920.63;106179;1274;95241;-68
2022/01/08 04:13:21;;;;;;;17.70;6.80;;;;;;;-4.09;56.73;98920.50;106080;1274;106795;-67
2022/01/08 04:16:06;;;;;;;21.20;7.10;;;;;;;-4.12;56.78;98922.79;106087;1274;97862;-66
2022/01/08 04:18:34;;;;;;;19.80;7.70;;;;;;;-4.15;56.82;98919.55;106107;1274;97758;-67
2022/01/08 04:24:01;;;;;;;21.50;8.00;;;;;;;-4.18;56.75;98908.68;106114;1274;96135;-68
2022/01/08 04:26:33;;;;;;;21.70;7.10;;;;;;;-4.18;56.96;98907.46;106075;1274;107712;-69
2022/01/08 04:29:06;;;;;;;21.60;6.90;;;;;;;-4.20;57.00;98912.52;106081;1274;97693;-68
2022/01/08 04:31:38;;;;;;;20.80;8.20;;;;;;;-4.22;56.81;98905.98;106168;1273;97900;-68
2022/01/08 04:34:06;;;;;;;22.30;7.60;;;;;;;-4.22;56.94;98898.17;106087;1274;112076;-69
2022/01/08 04:36:34;;;;;;;19.00;7.10;;;;;;;-4.23;57.00;98899.40;106189;1274;95270;-69
2022/01/08 04:39:07;;;;;;;19.70;7.30;;;;;;;-4.21;56.87;98900.08;106091;1274;108342;-67
2022/01/08 04:41:35;;;;;;;20.90;7.60;;;;;;;-4.20;56.83;98897.98;106211;1274;97894;-68
2022/01/08 04:44:09;;;;;;;23.90;8.20;;;;;;;-4.19;56.77;98896.73;106201;1274;97876;-67
2022/01/08 04:46:42;;;;;;;21.10;7.80;;;;;;;-4.17;57.03;98895.67;106214;1274;110366;-68
2022/01/08 04:49:15;;;;;;;24.30;9.70;;;;;;;-4.12;56.98;98890.23;106164;1274;97838;-67
2022/01/08 04:51:42;;;;;;;23.90;9.40;;;;;;;-4.08;56.98;98891.55;106081;1274;108342;-64
2022/01/08 04:54:10;;;;;;;25.50;8.60;;;;;;;-4.02;57.13;98892.50;106138;1274;97937;-67
2022/01/08 04:56:38;;;;;;;24.50;9.30;;;;;;;-4.05;56.95;98893.77;106114;1272;95165;-66
2022/01/08 04:59:15;;;;;;;25.50;9.40;;;;;;;-4.16;57.01;98894.98;106211;1274;111862;-66
2022/01/08 05:01:45;;;;;;;22.40;8.30;;;;;;;-4.23;56.99;98897.66;106213;1274;95210;-66
2022/01/08 05:04:18;;;;;;;26.20;10.10;;;;;;;-4.27;57.05;98902.92;106200;1274;108881;-68
2022/01/08 05:06:51;;;;;;;24.40;9.40;;;;;;;-4.31;57.07;98904.55;106143;1274;96182;-68
2022/01/08 05:09:23;;;;;;;20.80;7.80;;;;;;;-4.31;57.25;98905.93;106093;1274;97939;-68
2022/01/08 05:11:51;;;;;;;22.70;8.40;;;;;;;-4.31;57.16;98899.02;106062;1274;111795;-67
2022/01/08 05:14:25;;;;;;;20.10;8.40;;;;;;;-4.33;57.19;98899.91;106117;1274;95241;-66
2022/01/08 05:16:58;;;;;;;21.30;7.80;;;;;;;-4.36;57.58;98896.66;106051;1274;107203;-68
2022/01/08 05:20:04;;;;;;;21.50;9.10;;;;;;;-4.43;57.60;98897.96;106091;1274;97846;-68
2022/01/08 05:22:27;;;;;;;21.70;8.60;;;;;;;-4.48;57.88;98898.23;106074;1274;97891;-65
2022/01/08 05:24:59;;;;;;;26.40;8.80;;;;;;;-4.53;58.10;98898.63;106084;1274;111998;-66
2022/01/08 05:27:27;;;;;;;25.40;9.40;;;;;;;-4.57;58.13;98895.91;106096;1274;95403;-68
2022/01/08 05:30:00;;;;;;;25.50;8.80;;;;;;;-4.55;57.97;98896.41;106144;1274;108326;-68
2022/01/08 05:32:27;;;;;;;21.10;7.90;;;;;;;-4.48;57.90;98888.52;106205;1274;97967;-67
2022/01/08 05:35:00;;;;;;;24.80;8.60;;;;;;;-4.41;58.02;98880.27;106231;1274;97877;-67
2022/01/08 05:37:28;;;;;;;20.30;7.80;;;;;;;-4.35;58.11;98868.41;106100;1274;112167;-67
2022/01/08 05:39:56;;;;;;;23.60;8.20;;;;;;;-4.27;57.84;98860.70;106080;1273;97937;-67
2022/01/08 05:42:26;;;;;;;27.50;9.70;;;;;;;-4.23;57.95;98862.69;106068;1274;108298;-66
2022/01/08 05:44:53;;;;;;;22.80;9.20;;;;;;;-4.19;58.04;98863.50;106129;1274;97945;-66
2022/01/08 05:47:31;;;;;;;25.30;8.90;;;;;;;-4.16;58.03;98860.86;106109;1274;95342;-67
2022/01/08 05:50:03;;;;;;;29.50;9.30;;;;;;;-4.14;58.06;98868.45;106099;1273;111462;-67
2022/01/08 05:52:37;;;;;;;29.20;9.70;;;;;;;-4.14;58.23;98873.82;106126;1274;98437;-66
2022/01/08 05:55:09;;;;;;;30.10;10.10;;;;;;;-4.16;58.21;98871.42;106110;1274;108302;-66
2022/01/08 05:57:37;;;;;;;26.10;9.40;;;;;;;-4.18;58.37;98869.55;106126;1274;97948;-66
2022/01/08 06:00:09;;;;;;;24.60;9.80;;;;;;;-4.18;58.29;98876.48;106244;1274;95184;-67
2022/01/08 06:02:41;;;;;;;25.10;9.40;;;;;;;-4.19;58.27;98876.48;106150;1274;112690;-66
2022/01/08 06:05:12;;;;;;;23.00;8.00;;;;;;;-4.17;58.30;98875.25;106213;1274;95299;-67
2022/01/08 06:07:40;;;;;;;24.40;9.30;;;;;;;-4.14;58.49;98875.38;106146;1274;108987;-68
2022/01/08 06:10:12;;;;;;;22.10;7.50;;;;;;;-4.13;58.50;98878.14;106124;1274;97989;-69
2022/01/08 06:12:40;;;;;;;21.20;7.70;;;;;;;-4.12;58.58;98884.52;106132;1274;97943;-70
2022/01/08 06:15:10;;;;;;;21.70;7.60;;;;;;;-4.10;58.42;98885.19;106118;1274;112020;-68
2022/01/08 06:17:42;;;;;;;20.90;7.80;;;;;;;-4.07;58.41;98888.94;106155;1274;95184;-67
2022/01/08 06:20:12;;;;;;;22.80;7.20;;;;;;;-4.04;58.57;98886.47;106105;1274;108344;-66
2022/01/08 06:22:40;;;;;;;19.70;7.50;;;;;;;-4.00;58.59;98886.06;106094;1274;97867;-67
2022/01/08 06:25:13;;;;;;;23.30;8.50;;;;;;;-3.96;58.63;98893.61;106176;1273;98414;-68
2022/01/08 06:27:44;;;;;;;25.30;10.10;;;;;;;-3.90;58.70;98894.20;106248;1274;112392;-69
2022/01/08 06:30:12;;;;;;;20.80;7.70;;;;;;;-3.82;58.85;98895.98;106150;1274;96593;-68
2022/01/08 06:32:40;;;;;;;20.40;7.50;;;;;;;-3.75;58.62;98899.33;106229;1274;107719;-68
2022/01/08 06:35:12;;;;;;;19.50;7.10;;;;;;;-3.71;58.50;98897.37;106079;1274;97888;-66
2022/01/08 06:37:40;;;;;;;22.50;7.30;;;;;;;-3.69;58.68;98897.67;106197;1273;98580;-68
2022/01/08 06:40:12;;;;;;;20.60;7.80;;;;;;;-3.67;58.80;98897.29;106221;1274;111900;-67
2022/01/08 06:42:39;;;;;;;19.80;7.10;;;;;;;-3.64;58.81;98894.11;106084;1274;97965;-68
2022/01/08 06:45:17;;;;;;;21.60;7.70;;;;;;;-3.60;58.80;98893.67;106082;1274;109535;-70
2022/01/08 06:47:45;;;;;;;22.50;7.90;;;;;;;-3.54;58.83;98898.95;106076;1275;97877;-69
2022/01/08 06:50:18;;;;;;;22.70;7.10;;;;;;;-3.55;58.96;98900.55;106100;1274;97841;-68
2022/01/08 06:52:50;;;;;;;19.10;8.10;;;;;;;-3.64;59.03;98895.50;106083;1274;110996;-66
2022/01/08 06:55:18;;;;;;;22.20;7.80;;;;;;;-3.74;59.17;98888.39;106185;1274;97908;-66
2022/01/08 06:57:46;;;;;;;25.30;9.40;;;;;;;-3.80;59.30;98876.70;106137;1275;107743;-67
2022/01/08 07:00:18;;;;;;;25.20;8.60;;;;;;;-3.83;59.26;98878.48;106118;1274;97873;-68
2022/01/08 07:02:46;;;;;;;20.60;8.70;;;;;;;-3.85;59.28;98882.17;106202;1274;95166;-68
2022/01/08 07:05:19;;;;;;;22.70;7.90;;;;;;;-3.86;59.39;98887.55;106186;1274;112014;-68
2022/01/08 07:07:46;;;;;;;24.20;8.80;;;;;;;-3.85;59.33;98887.71;106197;1274;96262;-67
2022/01/08 07:10:14;;;;;;;23.40;8.80;;;;;;;-3.83;59.21;98896.17;106227;1274;108669;-68
2022/01/08 07:12:47;;;;;;;25.70;9.50;;;;;;;-3.82;59.48;98896.49;106153;1274;97986;-69
2022/01/08 07:15:14;;;;;;;26.70;8.60;;;;;;;-3.80;59.36;98890.05;106101;1274;97974;-69
2022/01/08 07:17:42;;;;;;;26.50;9.00;;;;;;;-3.78;59.43;98888.80;106077;1274;111040;-68
2022/01/08 07:20:20;;;;;;;24.40;9.20;;;;;;;-3.75;59.78;98884.08;106100;1274;97951;-67
2022/01/08 07:22:48;;;;;;;26.60;10.50;;;;;;;-3.77;59.66;98879.10;106091;1274;107691;-69
2022/01/08 07:25:16;;;;;;;27.00;10.20;;;;;;;-3.79;59.85;98873.92;106178;1274;97905;-67
2022/01/08 07:27:49;;;;;;;26.20;10.40;;;;;;;-3.79;59.53;98870.28;106163;1274;97875;-68
2022/01/08 07:30:25;;;;;;;25.10;9.60;;;;;;;-3.76;59.48;98871.95;106128;1274;111421;-69
2022/01/08 07:32:53;;;;;;;24.60;9.90;;;;;;;-3.74;59.68;98873.50;106082;1274;96996;-68
2022/01/08 07:35:25;;;;;;;26.90;10.70;;;;;;;-3.72;59.58;98868.44;106089;1274;107392;-68
2022/01/08 07:37:55;;;;;;;25.10;10.90;;;;;;;-3.68;59.64;98874.43;106151;1274;98038;-69
2022/01/08 07:40:24;;;;;;;25.40;10.20;;;;;;;-3.65;59.45;98879.05;106019;1274;97831;-63
2022/01/08 07:42:55;;;;;;;25.90;10.30;;;;;;;-3.60;59.68;98877.40;106065;1274;111975;-67
2022/01/08 07:45:32;;;;;;;23.10;9.30;;;;;;;-3.52;59.56;98875.71;106073;1274;97863;-68
2022/01/08 07:48:00;;;;;;;22.50;9.20;;;;;;;-3.47;59.73;98874.20;106136;1274;108272;-69
2022/01/08 07:50:31;;;;;;;19.50;7.60;;;;;;;-3.42;59.46;98873.25;106163;1274;97988;-69
2022/01/08 07:52:59;;;;;;;22.40;8.10;;;;;;;-3.36;59.49;98870.02;106182;1274;98070;-73
2022/01/08 07:55:27;;;;;;;22.80;8.50;;;;;;;-3.28;59.91;98865.88;106110;1274;111999;-69
2022/01/08 07:57:55;;;;;;;20.00;7.60;;;;;;;-3.21;59.82;98864.70;106088;1274;95228;-68
2022/01/08 08:00:24;;;;;;;25.30;9.40;;;;;;;-3.14;59.87;98868.89;106187;1274;108401;-69
2022/01/08 08:02:51;;;;;;;22.90;8.90;;;;;;;-3.05;59.65;98866.48;106076;1274;97913;-74
2022/01/08 08:05:20;;;;;;;23.50;8.50;;;;;;;-2.96;60.09;98862.46;106066;1274;95993;-69
2022/01/08 08:07:48;;;;;;;23.30;8.50;;;;;;;-2.86;60.24;98856.88;106040;1274;109925;-68
2022/01/08 08:10:17;;;;;;;23.70;8.90;;;;;;;-2.75;60.08;98853.70;106060;1274;97898;-67
2022/01/08 08:12:45;;;;;;;23.80;9.20;;;;;;;-2.67;60.20;98854.73;106042;1274;108709;-69
2022/01/08 08:15:15;;;;;;;22.40;8.80;;;;;;;-2.59;60.32;98850.90;106125;1274;95789;-68
2022/01/08 08:17:43;;;;;;;26.10;9.20;;;;;;;-2.51;60.13;98849.34;106229;1274;98500;-69
2022/01/08 08:20:14;;;;;;;23.10;8.70;;;;;;;-2.43;60.36;98851.92;106124;1274;111344;-67
2022/01/08 08:22:42;;;;;;;25.10;9.50;;;;;;;-2.33;60.34;98847.54;106052;1274;98604;-67
2022/01/08 08:25:12;;;;;;;22.50;9.10;;;;;;;-2.26;60.31;98846.66;106019;1274;107319;-68
2022/01/08 08:27:44;;;;;;;29.50;11.20;;;;;;;-2.18;60.06;98843.71;106186;1274;95255;-69
2022/01/08 08:30:14;;;;;;;28.40;11.80;;;;;;;-2.12;60.09;98840.95;106046;1274;97937;-64
2022/01/08 08:32:42;;;;;;;28.50;11.10;;;;;;;-2.08;60.14;98837.21;106030;1274;111955;-68
2022/01/08 08:35:15;;;;;;;26.90;11.40;;;;;;;-2.05;60.23;98837.66;106086;1274;97091;-70
2022/01/08 08:37:47;;;;;;;29.00;11.50;;;;;;;-1.99;60.01;98838.19;106033;1274;108213;-70
2022/01/08 08:40:17;;;;;;;30.70;13.60;;;;;;;-1.90;60.14;98845.28;106115;1274;95354;-70
2022/01/08 08:42:46;;;;;;;30.70;12.50;;;;;;;-1.83;60.05;98845.42;106184;1274;97897;-68
2022/01/08 08:45:16;;;;;;;30.80;12.20;;;;;;;-1.75;60.18;98844.20;106116;1274;111668;-69
2022/01/08 08:47:44;;;;;;;28.10;11.40;;;;;;;-1.67;60.17;98839.14;106019;1274;98013;-69
2022/01/08 08:50:17;;;;;;;28.30;11.30;;;;;;;-1.57;60.24;98834.51;106084;1274;108326;-65
2022/01/08 08:52:45;;;;;;;26.00;10.30;;;;;;;-1.42;60.65;98834.80;106161;1274;97943;-69
2022/01/08 08:55:19;;;;;;;21.60;8.20;;;;;;;-1.25;60.39;98827.73;106194;1274;97908;-65
2022/01/08 08:57:50;;;;;;;25.50;11.00;;;;;;;-1.05;60.28;98824.20;106208;1274;111437;-68
2022/01/08 09:00:19;;;;;;;27.70;12.00;;;;;;;-0.83;60.45;98817.80;106218;1274;96958;-69
2022/01/08 09:02:56;;;;;;;26.60;11.10;;;;;;;-0.55;60.20;98812.58;106104;1274;108681;-67
2022/01/08 09:05:28;;;;;;;21.90;8.90;;;;;;;-0.25;60.41;98809.20;106051;1274;97982;-69
2022/01/08 09:07:55;;;;;;;25.90;10.70;;;;;;;0.16;60.03;98797.73;106070;1274;97939;-69
2022/01/08 09:10:25;;;;;;;27.10;10.40;;;;;;;0.36;60.15;98788.65;106090;1274;111205;-69
2022/01/08 09:12:54;;;;;;;24.50;9.60;;;;;;;0.63;60.33;98787.88;106057;1274;97967;-67
2022/01/08 09:15:25;;;;;;;23.10;9.60;;;;;;;0.93;60.38;98787.14;106112;1274;108361;-69
2022/01/08 09:17:58;;;;;;;23.50;8.90;;;;;;;1.28;60.78;98788.05;105970;1274;97950;-68
2022/01/08 09:20:28;;;;;;;28.00;10.20;;;;;;;1.75;60.40;98781.99;106050;1273;96385;-68
2022/01/08 09:22:57;;;;;;;26.30;10.40;;;;;;;2.22;60.46;98775.84;106076;1274;112258;-66
2022/01/08 09:25:26;;;;;;;25.50;9.70;;;;;;;2.71;60.32;98778.42;106100;1274;96224;-66
2022/01/08 09:27:55;;;;;;;27.10;11.50;;;;;;;3.20;60.43;98775.48;106265;1274;108688;-66
2022/01/08 09:30:23;;;;;;;27.40;12.50;;;;;;;3.64;60.37;98767.27;106269;1274;97998;-67
2022/01/08 09:32:52;;;;;;;27.20;12.20;;;;;;;3.98;60.17;98767.88;107249;1274;95603;-67
2022/01/08 09:35:23;;;;;;;24.90;11.00;;;;;;;3.94;59.27;98767.55;107186;1273;111091;-69
2022/01/08 09:37:54;;;;;;;26.20;11.20;;;;;;;3.60;58.21;98764.83;106021;1274;97935;-66
2022/01/08 09:40:24;;;;;;;28.10;12.80;;;;;;;3.35;59.08;98763.58;106802;1274;108296;-67
2022/01/08 09:42:52;;;;;;;27.50;11.10;;;;;;;3.26;59.27;98759.77;106062;1274;96867;-67
2022/01/08 09:45:20;;;;;;;27.00;12.30;;;;;;;3.29;59.36;98756.84;106131;1274;97989;-67
2022/01/08 09:47:52;;;;;;;25.30;10.90;;;;;;;3.36;59.53;98756.17;106204;1274;111891;-68
2022/01/08 09:50:20;;;;;;;25.20;10.30;;;;;;;3.48;59.44;98757.71;106257;1274;95283;-68
2022/01/08 09:52:56;;;;;;;21.70;9.50;;;;;;;3.56;59.17;98752.04;106190;1274;108374;-68
2022/01/08 09:55:28;;;;;;;22.10;9.00;;;;;;;3.65;59.49;98747.05;106263;1274;95220;-67
2022/01/08 09:57:56;;;;;;;22.10;9.60;;;;;;;3.78;59.52;98745.02;106264;1274;97874;-67
2022/01/08 10:00:28;;;;;;;20.90;8.20;;;;;;;3.90;59.55;98739.70;106233;1274;111943;-68
2022/01/08 10:03:16;;;;;;;17.20;7.20;;;;;;;4.01;59.56;98743.48;106126;1274;97959;-68
2022/01/08 10:05:54;;;;;;;19.40;7.90;;;;;;;4.04;59.01;98740.41;106075;1274;107689;-68
2022/01/08 10:08:45;;;;;;;20.30;7.40;;;;;;;4.08;59.05;98730.87;106106;1274;97870;-68
2022/01/08 10:11:17;;;;;;;18.10;7.50;;;;;;;4.04;58.37;98723.53;106102;1274;97987;-69
2022/01/08 10:13:58;;;;;;;18.90;7.50;;;;;;;3.80;57.09;98726.15;106110;1274;110685;-69
2022/01/08 10:19:25;;;;;;;21.40;8.10;;;;;;;3.56;57.44;98735.05;106111;1274;107846;-69
2022/01/08 10:21:57;;;;;;;20.60;7.80;;;;;;;3.66;57.68;98728.56;106154;1274;96385;-69
2022/01/08 10:24:30;;;;;;;19.30;7.50;;;;;;;3.72;57.00;98728.31;106040;1274;96334;-68
2022/01/08 10:27:05;;;;;;;19.80;8.00;;;;;;;3.70;57.07;98728.38;106093;1274;111418;-69
2022/01/08 10:29:37;;;;;;;19.80;7.70;;;;;;;3.73;57.18;98721.92;106095;1274;96008;-67
2022/01/08 10:32:11;;;;;;;21.20;7.40;;;;;;;3.82;57.37;98717.29;106052;1274;107810;-68
2022/01/08 10:34:48;;;;;;;18.80;7.40;;;;;;;3.89;56.30;98720.05;106100;1274;98427;-68
2022/01/08 10:37:16;;;;;;;18.60;7.20;;;;;;;3.73;56.39;98716.66;106078;1274;96296;-69
2022/01/08 10:39:53;;;;;;;20.90;8.20;;;;;;;3.67;56.17;98713.97;106183;1274;111381;-71
2022/01/08 10:42:21;;;;;;;21.80;7.70;;;;;;;3.60;55.70;98716.26;106250;1274;97956;-71
2022/01/08 10:44:52;;;;;;;19.00;8.40;;;;;;;3.60;56.07;98715.23;106217;1274;107606;-71
2022/01/08 10:47:23;;;;;;;19.60;7.10;;;;;;;3.68;56.04;98711.14;106106;1274;95947;-71
2022/01/08 10:50:06;;;;;;;21.70;7.80;;;;;;;3.79;56.53;98707.77;106225;1274;97924;-72
2022/01/08 10:52:42;;;;;;;20.80;8.10;;;;;;;3.93;56.06;98707.27;106240;1274;112436;-72
2022/01/08 10:55:10;;;;;;;19.80;7.50;;;;;;;3.96;55.80;98699.38;106205;1274;95231;-68
2022/01/08 10:57:46;;;;;;;21.20;7.80;;;;;;;4.00;55.63;98700.55;106160;1274;107830;-70
2022/01/08 11:00:19;;;;;;;21.00;7.90;;;;;;;3.99;55.05;98702.02;106190;1274;98037;-71
2022/01/08 11:02:47;;;;;;;17.00;6.50;;;;;;;3.89;55.06;98701.84;106227;1273;97879;-72
2022/01/08 11:05:15;;;;;;;21.50;8.30;;;;;;;3.91;54.96;98704.20;106262;1273;111252;-70
2022/01/08 11:07:46;;;;;;;19.30;7.30;;;;;;;3.92;54.94;98702.06;106240;1274;97947;-71
2022/01/08 11:10:21;;;;;;;23.50;7.50;;;;;;;3.98;55.23;98697.86;106128;1274;107767;-71
2022/01/08 11:12:51;;;;;;;20.90;7.20;;;;;;;4.09;54.06;98699.25;106213;1271;96344;-73
2022/01/08 11:18:00;;;;;;;20.80;7.60;;;;;;;3.75;53.98;98700.63;106243;1274;111688;-71
2022/01/08 11:20:52;;;;;;;16.90;6.20;;;;;;;3.83;54.47;98701.27;106201;1274;95874;-70
2022/01/08 11:23:26;;;;;;;22.80;8.10;;;;;;;3.93;54.28;98701.80;106166;1274;107718;-70
2022/01/08 11:25:58;;;;;;;19.70;7.10;;;;;;;4.06;54.21;98703.80;106076;1274;97832;-66
2022/01/08 11:28:37;;;;;;;19.00;7.50;;;;;;;4.19;54.56;98705.23;106087;1274;97847;-65
2022/01/08 11:31:11;;;;;;;18.00;7.00;;;;;;;4.31;54.27;98701.42;106103;1274;111131;-70
2022/01/08 11:33:49;;;;;;;21.60;7.90;;;;;;;4.43;54.40;98701.34;106064;1274;98029;-67
2022/01/08 11:36:23;;;;;;;19.70;7.30;;;;;;;4.53;54.58;98702.02;106187;1274;107446;-71
2022/01/08 11:38:57;;;;;;;20.30;7.30;;;;;;;4.63;54.34;98707.66;106119;1274;97961;-69
2022/01/08 11:41:26;;;;;;;20.50;7.20;;;;;;;4.70;54.45;98702.70;106134;1274;95989;-69
2022/01/08 11:43:58;;;;;;;20.50;7.80;;;;;;;4.77;54.41;98698.11;106105;1274;110808;-69
2022/01/08 11:46:26;;;;;;;20.50;6.90;;;;;;;4.87;54.58;98698.97;106192;1274;95422;-75
2022/01/08 11:48:55;;;;;;;19.70;7.40;;;;;;;4.92;54.49;98697.61;106181;1274;107564;-72
2022/01/08 11:51:27;;;;;;;21.70;8.40;;;;;;;4.91;54.41;98697.71;106130;1274;97839;-70
2022/01/08 11:54:02;;;;;;;18.20;7.30;;;;;;;4.81;54.49;98695.79;106061;1273;97982;-70
2022/01/08 11:56:38;;;;;;;20.50;8.10;;;;;;;4.73;54.55;98693.41;106139;1273;112280;-71